sensor_id;sensor_type;location;lat;lon;timestamp;pressure;altitude;pressure_sealevel;temperature;humidity
78210;BME280;67485;48.816;9.930;2023-04-15T00:01:20;95858.91;;;4.52;80.69
78210;BME280;67485;48.816;9.930;2023-04-15T00:03:49;95855.41;;;4.53;80.71
78210;BME280;67485;48.816;9.930;2023-04-15T00:06:15;95861.41;;;4.55;80.11
78210;BME280;67485;48.816;9.930;2023-04-15T00:08:40;95859.09;;;4.41;80.73
78210;BME280;67485;48.816;9.930;2023-04-15T00:11:06;95855.56;;;4.44;81.51
78210;BME280;67485;48.816;9.930;2023-04-15T00:13:32;95863.44;;;4.39;80.35
78210;BME280;67485;48.816;9.930;2023-04-15T00:15:59;95866.88;;;4.41;80.44
78210;BME280;67485;48.816;9.930;2023-04-15T00:18:25;95860.78;;;4.41;80.76
78210;BME280;67485;48.816;9.930;2023-04-15T00:20:51;95862.56;;;4.40;80.79
78210;BME280;67485;48.816;9.930;2023-04-15T00:23:17;95865.84;;;4.50;80.10
78210;BME280;67485;48.816;9.930;2023-04-15T00:25:42;95867.69;;;4.42;80.44
78210;BME280;67485;48.816;9.930;2023-04-15T00:28:09;95866.09;;;4.34;80.19
78210;BME280;67485;48.816;9.930;2023-04-15T00:30:34;95867.00;;;4.32;80.44
78210;BME280;67485;48.816;9.930;2023-04-15T00:33:00;95869.53;;;4.36;80.23
78210;BME280;67485;48.816;9.930;2023-04-15T00:35:29;95860.94;;;4.33;80.16
78210;BME280;67485;48.816;9.930;2023-04-15T00:37:57;95863.63;;;4.27;80.33
78210;BME280;67485;48.816;9.930;2023-04-15T00:40:24;95859.38;;;4.24;80.16
78210;BME280;67485;48.816;9.930;2023-04-15T00:42:51;95857.59;;;4.26;80.21
78210;BME280;67485;48.816;9.930;2023-04-15T00:45:17;95857.47;;;4.34;80.99
78210;BME280;67485;48.816;9.930;2023-04-15T00:47:43;95850.53;;;4.34;80.66
78210;BME280;67485;48.816;9.930;2023-04-15T00:50:12;95845.69;;;4.16;81.02
78210;BME280;67485;48.816;9.930;2023-04-15T00:52:39;95850.78;;;4.22;80.44
78210;BME280;67485;48.816;9.930;2023-04-15T00:55:05;95855.88;;;4.25;80.41
78210;BME280;67485;48.816;9.930;2023-04-15T00:57:32;95855.31;;;4.08;80.82
78210;BME280;67485;48.816;9.930;2023-04-15T00:59:59;95856.28;;;4.00;80.53
78210;BME280;67485;48.816;9.930;2023-04-15T01:02:24;95857.19;;;3.98;80.91
78210;BME280;67485;48.816;9.930;2023-04-15T01:04:50;95852.09;;;3.95;81.71
78210;BME280;67485;48.816;9.930;2023-04-15T01:07:16;95859.09;;;3.89;81.15
78210;BME280;67485;48.816;9.930;2023-04-15T01:09:42;95856.47;;;3.91;81.90
78210;BME280;67485;48.816;9.930;2023-04-15T01:12:11;95847.84;;;3.89;81.43
78210;BME280;67485;48.816;9.930;2023-04-15T01:14:38;95843.63;;;3.83;81.20
78210;BME280;67485;48.816;9.930;2023-04-15T01:17:04;95844.72;;;3.68;81.50
78210;BME280;67485;48.816;9.930;2023-04-15T01:19:31;95844.72;;;3.68;81.80
78210;BME280;67485;48.816;9.930;2023-04-15T01:21:57;95848.03;;;3.77;82.01
78210;BME280;67485;48.816;9.930;2023-04-15T01:24:25;95843.75;;;3.76;82.07
78210;BME280;67485;48.816;9.930;2023-04-15T01:26:53;95846.34;;;3.76;82.30
78210;BME280;67485;48.816;9.930;2023-04-15T01:29:18;95847.19;;;3.76;81.52
78210;BME280;67485;48.816;9.930;2023-04-15T01:31:51;95844.63;;;3.75;81.16
78210;BME280;67485;48.816;9.930;2023-04-15T01:34:35;95836.00;;;3.72;82.05
78210;BME280;67485;48.816;9.930;2023-04-15T01:37:19;95832.50;;;3.75;80.90
78210;BME280;67485;48.816;9.930;2023-04-15T01:39:45;95843.97;;;3.60;81.47
78210;BME280;67485;48.816;9.930;2023-04-15T01:42:11;95839.00;;;3.45;81.71
78210;BME280;67485;48.816;9.930;2023-04-15T01:44:38;95838.16;;;3.46;82.41
78210;BME280;67485;48.816;9.930;2023-04-15T01:47:04;95840.66;;;3.49;81.82
78210;BME280;67485;48.816;9.930;2023-04-15T01:49:32;95844.75;;;3.67;81.71
78210;BME280;67485;48.816;9.930;2023-04-15T01:52:00;95848.94;;;3.76;81.17
78210;BME280;67485;48.816;9.930;2023-04-15T01:54:27;95842.91;;;3.73;80.88
78210;BME280;67485;48.816;9.930;2023-04-15T01:56:54;95844.84;;;3.59;81.30
78210;BME280;67485;48.816;9.930;2023-04-15T01:59:22;95834.47;;;3.59;81.46
78210;BME280;67485;48.816;9.930;2023-04-15T02:01:49;95845.75;;;3.58;81.01
78210;BME280;67485;48.816;9.930;2023-04-15T02:04:16;95847.50;;;3.54;81.44
78210;BME280;67485;48.816;9.930;2023-04-15T02:06:43;95837.97;;;3.58;82.42
78210;BME280;67485;48.816;9.930;2023-04-15T02:09:10;95834.75;;;3.42;82.51
78210;BME280;67485;48.816;9.930;2023-04-15T02:11:38;95831.19;;;3.48;82.75
78210;BME280;67485;48.816;9.930;2023-04-15T02:14:05;95834.63;;;3.50;83.03
78210;BME280;67485;48.816;9.930;2023-04-15T02:16:32;95826.78;;;3.53;83.24
78210;BME280;67485;48.816;9.930;2023-04-15T02:18:59;95829.44;;;3.50;82.49
78210;BME280;67485;48.816;9.930;2023-04-15T02:21:26;95825.97;;;3.51;82.66
78210;BME280;67485;48.816;9.930;2023-04-15T02:23:53;95827.44;;;3.67;81.84
78210;BME280;67485;48.816;9.930;2023-04-15T02:26:20;95823.97;;;3.68;81.38
78210;BME280;67485;48.816;9.930;2023-04-15T02:28:51;95825.72;;;3.66;81.47
78210;BME280;67485;48.816;9.930;2023-04-15T02:31:17;95829.16;;;3.68;82.43
78210;BME280;67485;48.816;9.930;2023-04-15T02:33:44;95826.69;;;3.59;82.83
78210;BME280;67485;48.816;9.930;2023-04-15T02:36:12;95831.00;;;3.60;82.50
78210;BME280;67485;48.816;9.930;2023-04-15T02:38:39;95826.84;;;3.50;82.52
78210;BME280;67485;48.816;9.930;2023-04-15T02:41:08;95822.69;;;3.39;83.14
78210;BME280;67485;48.816;9.930;2023-04-15T02:43:36;95821.00;;;3.35;83.00
78210;BME280;67485;48.816;9.930;2023-04-15T02:46:05;95827.91;;;3.36;83.05
78210;BME280;67485;48.816;9.930;2023-04-15T02:48:32;95835.63;;;3.38;82.64
78210;BME280;67485;48.816;9.930;2023-04-15T02:51:13;95833.91;;;3.38;82.79
78210;BME280;67485;48.816;9.930;2023-04-15T02:53:40;95833.00;;;3.43;82.86
78210;BME280;67485;48.816;9.930;2023-04-15T02:56:07;95837.44;;;3.33;83.67
78210;BME280;67485;48.816;9.930;2023-04-15T02:58:34;95833.22;;;3.27;83.48
78210;BME280;67485;48.816;9.930;2023-04-15T03:01:02;95833.06;;;3.36;83.71
78210;BME280;67485;48.816;9.930;2023-04-15T03:03:29;95835.59;;;3.41;84.36
78210;BME280;67485;48.816;9.930;2023-04-15T03:05:56;95839.00;;;3.45;83.75
78210;BME280;67485;48.816;9.930;2023-04-15T03:08:23;95833.88;;;3.41;82.40
78210;BME280;67485;48.816;9.930;2023-04-15T03:10:50;95834.72;;;3.40;82.90
78210;BME280;67485;48.816;9.930;2023-04-15T03:13:19;95833.00;;;3.43;82.29
78210;BME280;67485;48.816;9.930;2023-04-15T03:15:47;95840.84;;;3.36;81.90
78210;BME280;67485;48.816;9.930;2023-04-15T03:18:14;95831.34;;;3.35;82.00
78210;BME280;67485;48.816;9.930;2023-04-15T03:20:41;95831.41;;;3.32;82.30
78210;BME280;67485;48.816;9.930;2023-04-15T03:23:08;95834.78;;;3.37;82.32
78210;BME280;67485;48.816;9.930;2023-04-15T03:25:36;95830.44;;;3.41;82.09
78210;BME280;67485;48.816;9.930;2023-04-15T03:28:04;95828.75;;;3.38;82.67
78210;BME280;67485;48.816;9.930;2023-04-15T03:30:33;95831.34;;;3.38;82.60
78210;BME280;67485;48.816;9.930;2023-04-15T03:32:59;95831.41;;;3.32;82.29
78210;BME280;67485;48.816;9.930;2023-04-15T03:35:26;95829.84;;;3.22;83.84
78210;BME280;67485;48.816;9.930;2023-04-15T03:37:53;95824.66;;;3.22;83.83
78210;BME280;67485;48.816;9.930;2023-04-15T03:40:20;95835.84;;;3.26;84.03
78210;BME280;67485;48.816;9.930;2023-04-15T03:42:47;95836.69;;;3.26;83.95
78210;BME280;67485;48.816;9.930;2023-04-15T03:45:14;95842.78;;;3.20;83.80
78210;BME280;67485;48.816;9.930;2023-04-15T03:47:41;95834.94;;;3.28;83.74
78210;BME280;67485;48.816;9.930;2023-04-15T03:50:08;95840.97;;;3.27;83.77
78210;BME280;67485;48.816;9.930;2023-04-15T03:52:35;95833.28;;;3.21;83.96
78210;BME280;67485;48.816;9.930;2023-04-15T03:55:02;95826.56;;;3.07;84.76
78210;BME280;67485;48.816;9.930;2023-04-15T03:57:29;95829.16;;;3.07;84.64
78210;BME280;67485;48.816;9.930;2023-04-15T03:59:56;95824.81;;;3.10;84.52
78210;BME280;67485;48.816;9.930;2023-04-15T04:02:23;95827.44;;;3.06;85.00
78210;BME280;67485;48.816;9.930;2023-04-15T04:04:50;95830.06;;;3.03;85.23
78210;BME280;67485;48.816;9.930;2023-04-15T04:07:17;95822.97;;;3.18;85.09
78210;BME280;67485;48.816;9.930;2023-04-15T04:09:44;95833.38;;;3.15;85.09
78210;BME280;67485;48.816;9.930;2023-04-15T04:12:11;95828.22;;;3.12;85.77
78210;BME280;67485;48.816;9.930;2023-04-15T04:14:38;95826.56;;;3.07;85.38
78210;BME280;67485;48.816;9.930;2023-04-15T04:17:05;95833.59;;;2.99;85.31
78210;BME280;67485;48.816;9.930;2023-04-15T04:19:32;95831.88;;;2.95;85.28
78210;BME280;67485;48.816;9.930;2023-04-15T04:21:59;95836.19;;;2.96;85.71
78210;BME280;67485;48.816;9.930;2023-04-15T04:24:26;95834.31;;;3.07;85.85
78210;BME280;67485;48.816;9.930;2023-04-15T04:26:53;95831.63;;;3.17;85.29
78210;BME280;67485;48.816;9.930;2023-04-15T04:29:19;95833.53;;;3.02;85.29
78210;BME280;67485;48.816;9.930;2023-04-15T04:31:47;95828.34;;;3.02;85.31
78210;BME280;67485;48.816;9.930;2023-04-15T04:34:14;95840.53;;;2.94;85.93
78210;BME280;67485;48.816;9.930;2023-04-15T04:36:41;95839.63;;;2.97;86.30
78210;BME280;67485;48.816;9.930;2023-04-15T04:39:08;95849.06;;;3.02;86.51
78210;BME280;67485;48.816;9.930;2023-04-15T04:41:35;95839.41;;;3.15;86.43
78210;BME280;67485;48.816;9.930;2023-04-15T04:44:02;95846.19;;;3.26;86.53
78210;BME280;67485;48.816;9.930;2023-04-15T04:46:29;95833.28;;;3.21;85.57
78210;BME280;67485;48.816;9.930;2023-04-15T04:48:56;95840.06;;;3.31;85.10
78210;BME280;67485;48.816;9.930;2023-04-15T04:51:23;95846.91;;;3.35;84.84
78210;BME280;67485;48.816;9.930;2023-04-15T04:53:50;95841.84;;;3.26;85.09
78210;BME280;67485;48.816;9.930;2023-04-15T04:56:17;95845.31;;;3.25;85.21
78210;BME280;67485;48.816;9.930;2023-04-15T04:58:44;95843.53;;;3.30;85.76
78210;BME280;67485;48.816;9.930;2023-04-15T05:01:11;95834.72;;;3.44;85.06
78210;BME280;67485;48.816;9.930;2023-04-15T05:03:38;95850.16;;;3.50;84.74
78210;BME280;67485;48.816;9.930;2023-04-15T05:06:05;95843.31;;;3.46;84.24
78210;BME280;67485;48.816;9.930;2023-04-15T05:08:34;95849.34;;;3.46;84.39
78210;BME280;67485;48.816;9.930;2023-04-15T05:11:02;95849.28;;;3.51;84.79
78210;BME280;67485;48.816;9.930;2023-04-15T05:13:29;95857.00;;;3.54;84.81
78210;BME280;67485;48.816;9.930;2023-04-15T05:15:56;95857.06;;;3.51;84.64
78210;BME280;67485;48.816;9.930;2023-04-15T05:18:23;95855.09;;;3.65;84.22
78210;BME280;67485;48.816;9.930;2023-04-15T05:20:50;95858.34;;;3.80;83.52
78210;BME280;67485;48.816;9.930;2023-04-15T05:23:17;95853.91;;;3.88;83.13
78210;BME280;67485;48.816;9.930;2023-04-15T05:25:44;95858.91;;;3.99;83.18
78210;BME280;67485;48.816;9.930;2023-04-15T05:28:10;95850.91;;;4.13;81.89
78210;BME280;67485;48.816;9.930;2023-04-15T05:30:38;95857.50;;;4.32;81.32
78210;BME280;67485;48.816;9.930;2023-04-15T05:33:05;95860.78;;;4.41;81.37
78210;BME280;67485;48.816;9.930;2023-04-15T05:35:32;95864.75;;;4.62;80.97
78210;BME280;67485;48.816;9.930;2023-04-15T05:37:59;95864.56;;;4.73;80.41
78210;BME280;67485;48.816;9.930;2023-04-15T05:40:26;95860.94;;;4.81;80.65
78210;BME280;67485;48.816;9.930;2023-04-15T05:42:53;95863.59;;;4.77;80.27
78210;BME280;67485;48.816;9.930;2023-04-15T05:45:20;95867.81;;;4.84;80.06
78210;BME280;67485;48.816;9.930;2023-04-15T05:47:47;95873.09;;;4.78;80.92
78210;BME280;67485;48.816;9.930;2023-04-15T05:50:16;95867.28;;;4.66;81.38
78210;BME280;67485;48.816;9.930;2023-04-15T05:52:43;95875.63;;;4.82;81.54
78210;BME280;67485;48.816;9.930;2023-04-15T05:55:11;95874.63;;;4.90;80.45
78210;BME280;67485;48.816;9.930;2023-04-15T05:57:38;95868.28;;;5.05;80.07
78210;BME280;67485;48.816;9.930;2023-04-15T06:00:05;95873.25;;;5.15;80.17
78210;BME280;67485;48.816;9.930;2023-04-15T06:02:37;95880.94;;;5.20;79.47
78210;BME280;67485;48.816;9.930;2023-04-15T06:05:04;95879.94;;;5.27;79.23
78210;BME280;67485;48.816;9.930;2023-04-15T06:07:35;95880.56;;;4.96;79.91
78210;BME280;67485;48.816;9.930;2023-04-15T06:10:03;95874.13;;;5.16;79.40
78210;BME280;67485;48.816;9.930;2023-04-15T06:12:30;95875.00;;;5.15;79.09
78210;BME280;67485;48.816;9.930;2023-04-15T06:14:57;95870.00;;;5.04;79.03
78210;BME280;67485;48.816;9.930;2023-04-15T06:17:24;95880.34;;;5.07;78.77
78210;BME280;67485;48.816;9.930;2023-04-15T06:19:51;95878.72;;;5.01;79.04
78210;BME280;67485;48.816;9.930;2023-04-15T06:22:22;95879.22;;;5.19;78.61
78210;BME280;67485;48.816;9.930;2023-04-15T06:24:49;95876.34;;;5.33;77.80
78210;BME280;67485;48.816;9.930;2023-04-15T06:27:17;95879.56;;;5.46;77.04
78210;BME280;67485;48.816;9.930;2023-04-15T06:29:44;95877.13;;;5.36;76.87
78210;BME280;67485;48.816;9.930;2023-04-15T06:32:11;95879.81;;;5.33;77.08
78210;BME280;67485;48.816;9.930;2023-04-15T06:34:38;95878.00;;;5.35;77.20
78210;BME280;67485;48.816;9.930;2023-04-15T06:37:05;95878.69;;;5.45;77.46
78210;BME280;67485;48.816;9.930;2023-04-15T06:39:32;95879.06;;;5.67;76.24
78210;BME280;67485;48.816;9.930;2023-04-15T06:41:59;95879.50;;;5.87;76.09
78210;BME280;67485;48.816;9.930;2023-04-15T06:44:28;95885.31;;;5.98;75.77
78210;BME280;67485;48.816;9.930;2023-04-15T06:46:55;95884.41;;;6.00;75.60
78210;BME280;67485;48.816;9.930;2023-04-15T06:49:22;95888.34;;;6.17;74.69
78210;BME280;67485;48.816;9.930;2023-04-15T06:51:49;95894.81;;;6.37;74.68
78210;BME280;67485;48.816;9.930;2023-04-15T06:54:17;95889.91;;;6.24;74.46
78210;BME280;67485;48.816;9.930;2023-04-15T06:56:44;95888.63;;;6.41;74.36
78210;BME280;67485;48.816;9.930;2023-04-15T06:59:11;95890.13;;;6.51;73.83
78210;BME280;67485;48.816;9.930;2023-04-15T07:01:40;95895.66;;;6.39;73.66
78210;BME280;67485;48.816;9.930;2023-04-15T07:04:07;95891.09;;;6.47;74.18
78210;BME280;67485;48.816;9.930;2023-04-15T07:06:34;95888.06;;;6.64;73.73
78210;BME280;67485;48.816;9.930;2023-04-15T07:09:01;95892.03;;;6.79;73.77
78210;BME280;67485;48.816;9.930;2023-04-15T07:11:28;95887.50;;;6.86;73.47
78210;BME280;67485;48.816;9.930;2023-04-15T07:13:57;95878.53;;;6.96;71.63
78210;BME280;67485;48.816;9.930;2023-04-15T07:16:23;95881.09;;;6.97;71.97
78210;BME280;67485;48.816;9.930;2023-04-15T07:18:50;95880.84;;;7.07;71.48
78210;BME280;67485;48.816;9.930;2023-04-15T07:21:18;95888.59;;;7.10;71.68
78210;BME280;67485;48.816;9.930;2023-04-15T07:23:44;95873.50;;;7.21;71.60
78210;BME280;67485;48.816;9.930;2023-04-15T07:26:12;95872.22;;;7.35;71.13
78210;BME280;67485;48.816;9.930;2023-04-15T07:28:39;95870.69;;;7.29;71.41
78210;BME280;67485;48.816;9.930;2023-04-15T07:31:07;95875.66;;;7.37;71.00
78210;BME280;67485;48.816;9.930;2023-04-15T07:33:34;95872.28;;;7.33;71.78
78210;BME280;67485;48.816;9.930;2023-04-15T07:36:01;95868.97;;;7.58;72.03
78210;BME280;67485;48.816;9.930;2023-04-15T07:38:28;95877.25;;;7.71;70.28
78210;BME280;67485;48.816;9.930;2023-04-15T07:40:55;95868.88;;;7.89;69.79
78210;BME280;67485;48.816;9.930;2023-04-15T07:43:22;95872.41;;;8.15;68.73
78210;BME280;67485;48.816;9.930;2023-04-15T07:45:49;95875.59;;;8.52;68.22
78210;BME280;67485;48.816;9.930;2023-04-15T07:48:16;95874.00;;;8.48;67.64
78210;BME280;67485;48.816;9.930;2023-04-15T07:50:43;95876.41;;;8.54;68.52
78210;BME280;67485;48.816;9.930;2023-04-15T07:53:10;95869.63;;;8.48;69.28
78210;BME280;67485;48.816;9.930;2023-04-15T07:55:36;95870.81;;;8.65;68.35
78210;BME280;67485;48.816;9.930;2023-04-15T07:58:03;95870.59;;;8.71;67.96
78210;BME280;67485;48.816;9.930;2023-04-15T08:00:30;95868.19;;;8.65;68.18
78210;BME280;67485;48.816;9.930;2023-04-15T08:02:57;95866.94;;;8.76;68.58
78210;BME280;67485;48.816;9.930;2023-04-15T08:05:25;95868.00;;;8.71;67.69
78210;BME280;67485;48.816;9.930;2023-04-15T08:07:52;95863.03;;;8.88;66.47
78210;BME280;67485;48.816;9.930;2023-04-15T08:10:18;95867.72;;;9.04;65.31
78210;BME280;67485;48.816;9.930;2023-04-15T08:12:49;95865.09;;;9.28;64.12
78210;BME280;67485;48.816;9.930;2023-04-15T08:15:19;95862.91;;;9.64;63.65
78210;BME280;67485;48.816;9.930;2023-04-15T08:17:47;95869.38;;;10.00;62.50
78210;BME280;67485;48.816;9.930;2023-04-15T08:20:14;95867.00;;;10.38;61.68
78210;BME280;67485;48.816;9.930;2023-04-15T08:22:41;95860.63;;;10.66;60.65
78210;BME280;67485;48.816;9.930;2023-04-15T08:25:08;95866.75;;;10.65;60.02
78210;BME280;67485;48.816;9.930;2023-04-15T08:27:35;95856.06;;;10.90;59.26
78210;BME280;67485;48.816;9.930;2023-04-15T08:30:03;95857.16;;;11.26;58.82
78210;BME280;67485;48.816;9.930;2023-04-15T08:32:30;95861.53;;;11.25;58.89
78210;BME280;67485;48.816;9.930;2023-04-15T08:34:57;95859.53;;;11.11;59.35
78210;BME280;67485;48.816;9.930;2023-04-15T08:37:24;95869.84;;;11.35;58.04
78210;BME280;67485;48.816;9.930;2023-04-15T08:39:52;95858.78;;;11.28;57.96
78210;BME280;67485;48.816;9.930;2023-04-15T08:42:36;95852.69;;;11.28;58.32
78210;BME280;67485;48.816;9.930;2023-04-15T08:45:03;95852.50;;;11.51;57.96
78210;BME280;67485;48.816;9.930;2023-04-15T08:47:33;95852.47;;;11.32;57.10
78210;BME280;67485;48.816;9.930;2023-04-15T08:50:02;95862.41;;;11.26;56.79
78210;BME280;67485;48.816;9.930;2023-04-15T08:52:30;95854.75;;;11.40;57.60
78210;BME280;67485;48.816;9.930;2023-04-15T08:54:59;95861.06;;;11.36;56.93
78210;BME280;67485;48.816;9.930;2023-04-15T08:57:28;95856.72;;;11.16;57.10
78210;BME280;67485;48.816;9.930;2023-04-15T08:59:55;95860.81;;;10.82;57.77
78210;BME280;67485;48.816;9.930;2023-04-15T09:02:24;95856.59;;;10.78;57.33
78210;BME280;67485;48.816;9.930;2023-04-15T09:04:54;95861.53;;;10.85;58.70
78210;BME280;67485;48.816;9.930;2023-04-15T09:07:20;95857.81;;;11.10;58.68
78210;BME280;67485;48.816;9.930;2023-04-15T09:09:47;95853.63;;;11.27;57.52
78210;BME280;67485;48.816;9.930;2023-04-15T09:12:15;95852.00;;;11.43;58.35
78210;BME280;67485;48.816;9.930;2023-04-15T09:14:44;95857.28;;;11.23;56.96
78210;BME280;67485;48.816;9.930;2023-04-15T09:17:11;95851.94;;;11.64;56.21
78210;BME280;67485;48.816;9.930;2023-04-15T09:19:38;95852.34;;;11.93;55.91
78210;BME280;67485;48.816;9.930;2023-04-15T09:22:05;95858.28;;;12.15;55.52
78210;BME280;67485;48.816;9.930;2023-04-15T09:24:35;95854.88;;;12.68;53.53
78210;BME280;67485;48.816;9.930;2023-04-15T09:27:03;95858.28;;;12.87;52.16
78210;BME280;67485;48.816;9.930;2023-04-15T09:29:30;95857.88;;;12.95;52.50
78210;BME280;67485;48.816;9.930;2023-04-15T09:32:09;95860.34;;;12.80;53.03
78210;BME280;67485;48.816;9.930;2023-04-15T09:34:36;95854.25;;;12.62;54.50
78210;BME280;67485;48.816;9.930;2023-04-15T09:37:03;95849.53;;;12.52;54.24
78210;BME280;67485;48.816;9.930;2023-04-15T09:39:50;95854.03;;;12.67;53.40
78210;BME280;67485;48.816;9.930;2023-04-15T09:42:18;95852.78;;;12.74;52.53
78210;BME280;67485;48.816;9.930;2023-04-15T09:44:52;95861.13;;;12.65;53.30
78210;BME280;67485;48.816;9.930;2023-04-15T09:47:29;95863.47;;;12.54;53.15
78210;BME280;67485;48.816;9.930;2023-04-15T09:49:58;95863.84;;;12.09;53.58
78210;BME280;67485;48.816;9.930;2023-04-15T09:52:25;95868.94;;;11.93;52.89
78210;BME280;67485;48.816;9.930;2023-04-15T09:54:54;95867.63;;;11.84;51.98
78210;BME280;67485;48.816;9.930;2023-04-15T09:57:22;95869.16;;;11.89;51.84
78210;BME280;67485;48.816;9.930;2023-04-15T09:59:50;95872.34;;;11.95;51.52
78210;BME280;67485;48.816;9.930;2023-04-15T10:02:18;95869.69;;;11.97;51.69
78210;BME280;67485;48.816;9.930;2023-04-15T10:04:50;95873.50;;;11.90;52.20
78210;BME280;67485;48.816;9.930;2023-04-15T10:07:19;95873.25;;;11.96;52.41
78210;BME280;67485;48.816;9.930;2023-04-15T10:09:48;95876.84;;;12.12;52.37
78210;BME280;67485;48.816;9.930;2023-04-15T10:12:19;95875.75;;;12.16;52.32
78210;BME280;67485;48.816;9.930;2023-04-15T10:14:55;95875.88;;;12.32;51.70
78210;BME280;67485;48.816;9.930;2023-04-15T10:17:26;95880.72;;;12.23;51.79
78210;BME280;67485;48.816;9.930;2023-04-15T10:20:00;95880.03;;;12.00;52.72
78210;BME280;67485;48.816;9.930;2023-04-15T10:22:29;95878.59;;;11.74;52.92
78210;BME280;67485;48.816;9.930;2023-04-15T10:24:57;95880.16;;;11.59;51.89
78210;BME280;67485;48.816;9.930;2023-04-15T10:27:26;95873.78;;;11.83;52.00
78210;BME280;67485;48.816;9.930;2023-04-15T10:29:53;95881.13;;;11.96;51.88
78210;BME280;67485;48.816;9.930;2023-04-15T10:32:23;95878.59;;;11.74;52.55
78210;BME280;67485;48.816;9.930;2023-04-15T10:34:51;95881.91;;;11.39;52.26
78210;BME280;67485;48.816;9.930;2023-04-15T10:37:34;95878.59;;;11.35;53.72
78210;BME280;67485;48.816;9.930;2023-04-15T10:40:31;95877.44;;;11.22;52.86
78210;BME280;67485;48.816;9.930;2023-04-15T10:43:02;95889.81;;;11.18;53.43
78210;BME280;67485;48.816;9.930;2023-04-15T10:45:34;95883.25;;;11.29;53.00
78210;BME280;67485;48.816;9.930;2023-04-15T10:48:04;95884.13;;;11.48;52.79
78210;BME280;67485;48.816;9.930;2023-04-15T10:50:32;95883.84;;;11.74;53.56
78210;BME280;67485;48.816;9.930;2023-04-15T10:53:02;95890.44;;;11.63;52.95
78210;BME280;67485;48.816;9.930;2023-04-15T10:55:31;95892.16;;;11.83;51.96
78210;BME280;67485;48.816;9.930;2023-04-15T10:58:00;95889.53;;;11.83;52.50
78210;BME280;67485;48.816;9.930;2023-04-15T11:00:29;95889.97;;;11.93;53.25
78210;BME280;67485;48.816;9.930;2023-04-15T11:02:58;95891.53;;;11.97;53.25
78210;BME280;67485;48.816;9.930;2023-04-15T11:08:15;95894.91;;;12.19;53.02
78210;BME280;67485;48.816;9.930;2023-04-15T11:15:37;95898.91;;;12.08;52.53
78210;BME280;67485;48.816;9.930;2023-04-15T11:18:28;95904.13;;;11.70;53.37
78210;BME280;67485;48.816;9.930;2023-04-15T11:20:59;95904.84;;;11.55;52.76
78210;BME280;67485;48.816;9.930;2023-04-15T11:23:42;95913.91;;;11.47;53.82
78210;BME280;67485;48.816;9.930;2023-04-15T11:26:13;95914.78;;;11.67;53.56
78210;BME280;67485;48.816;9.930;2023-04-15T11:28:42;95928.41;;;11.94;53.60
78210;BME280;67485;48.816;9.930;2023-04-15T11:31:15;95925.84;;;11.74;52.70
78210;BME280;67485;48.816;9.930;2023-04-15T11:33:59;95924.91;;;11.56;52.29
78210;BME280;67485;48.816;9.930;2023-04-15T11:36:30;95924.28;;;11.70;53.39
78210;BME280;67485;48.816;9.930;2023-04-15T11:39:00;95932.59;;;11.79;53.04
78210;BME280;67485;48.816;9.930;2023-04-15T11:41:26;95939.53;;;11.80;52.16
78210;BME280;67485;48.816;9.930;2023-04-15T11:43:53;95939.16;;;11.50;52.93
78210;BME280;67485;48.816;9.930;2023-04-15T11:46:27;95942.84;;;11.65;52.43
78210;BME280;67485;48.816;9.930;2023-04-15T11:48:54;95944.19;;;11.55;53.12
78210;BME280;67485;48.816;9.930;2023-04-15T11:51:21;95948.09;;;11.65;52.24
78210;BME280;67485;48.816;9.930;2023-04-15T11:53:49;95936.34;;;11.74;51.54
78210;BME280;67485;48.816;9.930;2023-04-15T11:56:23;95938.97;;;11.93;52.48
78210;BME280;67485;48.816;9.930;2023-04-15T11:58:54;95937.34;;;12.09;51.26
78210;BME280;67485;48.816;9.930;2023-04-15T12:01:36;95945.88;;;12.33;50.59
78210;BME280;67485;48.816;9.930;2023-04-15T12:04:15;95942.38;;;12.52;50.70
78210;BME280;67485;48.816;9.930;2023-04-15T12:06:42;95944.78;;;12.74;49.80
78210;BME280;67485;48.816;9.930;2023-04-15T12:09:09;95944.78;;;13.44;47.84
78210;BME280;67485;48.816;9.930;2023-04-15T12:11:39;95937.56;;;13.66;48.61
78210;BME280;67485;48.816;9.930;2023-04-15T12:16:54;95949.59;;;13.54;45.21
78210;BME280;67485;48.816;9.930;2023-04-15T12:19:27;95951.69;;;13.29;43.26
78210;BME280;67485;48.816;9.930;2023-04-15T12:22:02;95956.88;;;13.13;43.78
78210;BME280;67485;48.816;9.930;2023-04-15T12:24:32;95955.38;;;12.90;44.07
78210;BME280;67485;48.816;9.930;2023-04-15T12:27:03;95952.13;;;12.68;43.85
78210;BME280;67485;48.816;9.930;2023-04-15T12:29:30;95955.22;;;12.39;44.10
78210;BME280;67485;48.816;9.930;2023-04-15T12:32:05;95954.41;;;12.20;45.35
78210;BME280;67485;48.816;9.930;2023-04-15T12:34:39;95958.69;;;12.03;45.51
78210;BME280;67485;48.816;9.930;2023-04-15T12:37:06;95965.63;;;11.64;45.35
78210;BME280;67485;48.816;9.930;2023-04-15T12:39:44;95969.00;;;11.47;44.83
78210;BME280;67485;48.816;9.930;2023-04-15T12:42:11;95973.47;;;11.25;44.32
78210;BME280;67485;48.816;9.930;2023-04-15T12:44:38;95981.34;;;11.25;44.87
78210;BME280;67485;48.816;9.930;2023-04-15T12:47:04;95984.00;;;11.02;44.72
78210;BME280;67485;48.816;9.930;2023-04-15T12:49:31;95991.03;;;11.02;44.90
78210;BME280;67485;48.816;9.930;2023-04-15T12:51:59;95991.88;;;11.02;44.88
78210;BME280;67485;48.816;9.930;2023-04-15T12:54:25;95999.91;;;10.98;45.61
78210;BME280;67485;48.816;9.930;2023-04-15T12:56:52;96001.69;;;10.97;44.23
78210;BME280;67485;48.816;9.930;2023-04-15T12:59:19;95996.50;;;11.18;44.68
78210;BME280;67485;48.816;9.930;2023-04-15T13:01:46;96003.38;;;11.21;45.88
78210;BME280;67485;48.816;9.930;2023-04-15T13:04:13;96004.28;;;11.19;44.68
78210;BME280;67485;48.816;9.930;2023-04-15T13:06:39;96004.13;;;11.23;44.48
78210;BME280;67485;48.816;9.930;2023-04-15T13:09:05;95992.41;;;11.31;44.20
78210;BME280;67485;48.816;9.930;2023-04-15T13:11:32;96006.63;;;11.46;45.26
78210;BME280;67485;48.816;9.930;2023-04-15T13:14:02;96002.88;;;11.92;45.91
78210;BME280;67485;48.816;9.930;2023-04-15T13:16:28;96017.63;;;11.75;45.88
78210;BME280;67485;48.816;9.930;2023-04-15T13:18:54;96011.22;;;11.62;45.73
78210;BME280;67485;48.816;9.930;2023-04-15T13:21:19;96028.66;;;11.63;45.35
78210;BME280;67485;48.816;9.930;2023-04-15T13:23:45;96026.63;;;11.49;45.24